Pagina principale
METAR-TAF:

METAR-TAF

Aeroporti :

Aeroporto di Cervia-Pisignano

Cervia, Italia

latitudine: 44-13N, longitudine: 012-18E, altezza: 6 m

Osservazione

Il bollettino è stato emesso 45 minuti fa, alle 08:55 UTC
Vento 8 kt da nord-est
Temperature 9°C
Umidità 87%
Pressione 1015 hPa
Visibilità 10 km o più
Nubi sparse ad un'altezza di 4000 ft

METAR: LIPC 090855Z 04008KT 9999 SCT040 09/07 Q1015 RMK BKN SCT070 VIS MIN 9999 WIND THR11 32005KT WIND THR29 /////KT BLU

Ora: 10:40 (09:40 UTC)

Previsione

Il bollettino è stato emesso 1 ora e 40 minuti fa, alle 08:00 UTC
Previsione valida dal 09 alle 09 UTC al 09 alle 18 UTC
Vento 10 kt da est
Visibilità 10 km o più
Nuvoloso ad un'altezza di 3000 ft
Nuvoloso ad un'altezza di 6000 ft

TAF: LIPC 090800Z 0909/0918 09010KT 9999 BKN030 BKN060

Osservazioni e previsioni meteorologiche di più di 4000 aeroporti (messaggi METAR e TAF).

Le stazioni disponibili sono rappresentate dai dischi gialli e rossi sulla carta.

Puntare il mouse per vedere il nome della stazione.

Clicca sopra per visualizzare le osservazioni e previsioni meteorologiche.

Per cambiare la mappa : fare clic sui pulsanti verdi con una croce nera per ingrandire, il pulsante verde con un trattino per diminuire, o sulla freccia verde per le mappe adiacenti.


METAR-TAF: